createdAt,value
2022-10-05T00:00:48.654Z,5.00
2022-10-05T00:03:15.226Z,5.68
2022-10-05T00:05:42.226Z,5.00
2022-10-05T00:08:18.794Z,5.50
2022-10-05T00:10:46.623Z,5.40
2022-10-05T00:13:21.095Z,5.55
2022-10-05T00:15:48.893Z,5.70
2022-10-05T00:18:18.923Z,5.70
2022-10-05T00:20:47.165Z,6.30
2022-10-05T00:23:21.527Z,7.13
2022-10-05T00:25:48.248Z,6.65
2022-10-05T00:28:30.840Z,6.55
2022-10-05T00:30:59.115Z,5.75
2022-10-05T00:33:27.348Z,5.00
2022-10-05T00:35:55.107Z,6.40
2022-10-05T00:38:21.916Z,6.05
2022-10-05T00:40:57.500Z,5.40
2022-10-05T00:43:57.508Z,6.30
2022-10-05T00:46:31.074Z,6.00
2022-10-05T00:49:03.570Z,5.50
2022-10-05T00:51:35.891Z,6.00
2022-10-05T00:54:24.456Z,5.68
2022-10-05T00:57:21.734Z,4.97
2022-10-05T01:00:05.701Z,5.97
2022-10-05T01:02:44.601Z,5.40
2022-10-05T01:05:37.342Z,6.43
2022-10-05T01:08:12.997Z,5.63
2022-10-05T01:10:58.116Z,6.43
2022-10-05T01:14:10.427Z,6.43
2022-10-05T01:16:52.864Z,7.10
2022-10-05T01:19:31.508Z,7.32
2022-10-05T01:22:19.269Z,7.63
2022-10-05T01:25:07.414Z,7.15
2022-10-05T01:27:48.818Z,6.55
2022-10-05T01:30:24.766Z,6.10
2022-10-05T01:33:01.956Z,6.38
2022-10-05T01:35:49.480Z,6.13
2022-10-05T01:38:56.388Z,6.00
2022-10-05T01:41:55.861Z,7.03
2022-10-05T01:44:30.345Z,7.68
2022-10-05T01:47:06.858Z,7.13
2022-10-05T01:49:36.061Z,7.13
2022-10-05T01:52:13.716Z,5.75
2022-10-05T01:54:40.218Z,5.15
2022-10-05T01:57:28.215Z,5.97
2022-10-05T02:00:06.251Z,5.22
2022-10-05T02:02:38.306Z,5.82
2022-10-05T02:05:10.975Z,6.32
2022-10-05T02:07:54.322Z,6.03
2022-10-05T02:10:35.850Z,5.07
2022-10-05T02:13:29.979Z,5.18
2022-10-05T02:16:20.641Z,4.90
2022-10-05T02:18:53.966Z,4.97
2022-10-05T02:21:22.209Z,5.93
2022-10-05T02:23:52.659Z,5.13
2022-10-05T02:26:19.751Z,5.95
2022-10-05T02:29:02.502Z,6.47
2022-10-05T02:31:37.368Z,6.30
2022-10-05T02:34:28.449Z,7.13
2022-10-05T02:37:17.236Z,7.45
2022-10-05T02:39:52.860Z,6.57
2022-10-05T02:42:28.399Z,6.60
2022-10-05T02:44:58.373Z,6.15
2022-10-05T02:48:03.423Z,6.15
2022-10-05T02:50:34.557Z,6.90
2022-10-05T02:56:11.259Z,7.10
2022-10-05T02:59:28.548Z,11.63
2022-10-05T03:02:03.744Z,14.27
2022-10-05T03:04:36.447Z,9.25
2022-10-05T03:07:15.595Z,7.18
2022-10-05T03:09:49.615Z,7.43
2022-10-05T03:12:28.371Z,7.60
2022-10-05T03:14:57.852Z,6.53
2022-10-05T03:17:32.235Z,6.75
2022-10-05T03:20:17.458Z,8.13
2022-10-05T03:22:51.675Z,6.75
2022-10-05T03:25:52.068Z,6.05
2022-10-05T03:28:24.722Z,9.35
2022-10-05T03:31:00.474Z,7.78
2022-10-05T03:33:48.896Z,7.75
2022-10-05T03:36:27.552Z,6.65
2022-10-05T03:39:24.125Z,9.43
2022-10-05T03:42:00.454Z,8.07
2022-10-05T03:44:55.812Z,9.07
2022-10-05T03:47:39.845Z,31.83
2022-10-05T03:50:23.581Z,13.13
2022-10-05T03:53:00.030Z,7.63
2022-10-05T03:55:54.550Z,7.00
2022-10-05T03:58:29.393Z,7.25
2022-10-05T04:01:04.571Z,6.55
2022-10-05T04:03:41.294Z,7.38
2022-10-05T04:06:17.029Z,9.10
2022-10-05T04:09:00.457Z,13.23
2022-10-05T04:11:28.997Z,10.10
2022-10-05T04:14:07.299Z,9.57
2022-10-05T04:17:14.382Z,10.85
2022-10-05T04:20:03.279Z,10.23
2022-10-05T04:22:36.799Z,10.98
2022-10-05T04:25:29.683Z,12.60
2022-10-05T04:28:14.164Z,12.25
2022-10-05T04:30:44.251Z,11.23
2022-10-05T04:33:16.091Z,10.77
2022-10-05T04:35:54.674Z,10.10
2022-10-05T04:38:27.206Z,10.48
2022-10-05T04:40:56.646Z,9.85
2022-10-05T04:43:57.227Z,11.38
2022-10-05T04:46:54.848Z,11.17
2022-10-05T04:49:42.798Z,9.60
2022-10-05T04:52:40.427Z,9.38
2022-10-05T04:56:10.951Z,9.55
2022-10-05T04:58:57.126Z,9.25
2022-10-05T05:01:35.742Z,10.30
2022-10-05T05:04:24.016Z,9.65
2022-10-05T05:07:12.381Z,9.80
2022-10-05T05:09:58.948Z,11.00
2022-10-05T05:12:46.884Z,9.65
2022-10-05T05:15:18.725Z,10.23
2022-10-05T05:17:50.593Z,10.55
2022-10-05T05:20:51.259Z,11.60
2022-10-05T05:23:39.090Z,11.63
2022-10-05T05:26:23.811Z,12.95
2022-10-05T05:29:23.397Z,12.95
2022-10-05T05:31:53.831Z,13.73
2022-10-05T05:34:23.212Z,11.48
2022-10-05T05:37:11.781Z,11.82
2022-10-05T05:39:57.254Z,11.18
2022-10-05T05:42:38.133Z,11.98
2022-10-05T05:45:26.280Z,12.40
2022-10-05T05:47:54.868Z,11.32
2022-10-05T05:50:34.526Z,13.10
2022-10-05T05:53:10.028Z,10.85
2022-10-05T05:55:42.431Z,12.30
2022-10-05T05:58:18.096Z,11.07
2022-10-05T06:00:50.971Z,11.10
2022-10-05T06:03:39.658Z,11.45
2022-10-05T06:06:16.152Z,11.38
2022-10-05T06:08:47.758Z,11.57
2022-10-05T06:11:23.020Z,12.50
2022-10-05T06:13:50.627Z,11.00
2022-10-05T06:16:40.414Z,10.85
2022-10-05T06:19:23.314Z,11.60
2022-10-05T06:22:01.331Z,10.48
2022-10-05T06:24:44.682Z,12.18
2022-10-05T06:27:35.498Z,9.48
2022-10-05T06:30:07.591Z,10.43
2022-10-05T06:33:08.082Z,9.40
2022-10-05T06:35:56.582Z,9.88
2022-10-05T06:38:51.059Z,8.75
2022-10-05T06:41:52.777Z,9.48
2022-10-05T06:44:57.954Z,10.40
2022-10-05T06:47:51.871Z,11.07
2022-10-05T06:50:42.504Z,11.52
2022-10-05T06:53:35.521Z,9.77
2022-10-05T06:56:10.221Z,11.68
2022-10-05T06:58:48.258Z,9.35
2022-10-05T07:01:48.085Z,10.35
2022-10-05T07:04:37.384Z,9.52
2022-10-05T07:07:23.285Z,10.10
2022-10-05T07:10:12.988Z,11.07
2022-10-05T07:13:13.715Z,10.23
2022-10-05T07:16:07.543Z,11.85
2022-10-05T07:18:44.650Z,13.45
2022-10-05T07:21:30.028Z,11.45
2022-10-05T07:24:12.611Z,11.30
2022-10-05T07:26:39.145Z,14.43
2022-10-05T07:29:24.388Z,11.00
2022-10-05T07:32:14.090Z,10.25
2022-10-05T07:34:46.574Z,10.65
2022-10-05T07:37:39.317Z,10.27
2022-10-05T07:40:24.242Z,10.60
2022-10-05T07:43:15.842Z,15.98
2022-10-05T07:45:51.641Z,9.93
2022-10-05T07:48:26.351Z,9.98
2022-10-05T07:50:59.776Z,10.43
2022-10-05T07:53:40.572Z,14.75
2022-10-05T07:56:34.030Z,19.67
2022-10-05T07:59:21.249Z,26.77
2022-10-05T08:01:54.675Z,10.20
2022-10-05T08:04:30.783Z,10.38
2022-10-05T08:07:05.149Z,8.23
2022-10-05T08:09:56.663Z,8.98
2022-10-05T08:12:35.847Z,10.55
2022-10-05T08:15:10.063Z,8.93
2022-10-05T08:18:16.248Z,10.23
2022-10-05T08:20:48.200Z,8.20
2022-10-05T08:23:31.081Z,8.30
2022-10-05T08:26:28.224Z,7.88
2022-10-05T08:29:24.207Z,8.38
2022-10-05T08:31:57.780Z,9.48
2022-10-05T08:34:49.643Z,7.97
2022-10-05T08:37:27.482Z,8.20
2022-10-05T08:40:22.662Z,8.13
2022-10-05T08:43:35.504Z,8.05
2022-10-05T08:46:32.924Z,10.52
2022-10-05T08:49:50.699Z,9.10
2022-10-05T08:52:29.179Z,11.25
2022-10-05T08:55:02.043Z,8.82
2022-10-05T08:58:03.172Z,8.45
2022-10-05T09:00:52.207Z,9.27
2022-10-05T09:03:43.273Z,9.02
2022-10-05T09:06:33.559Z,8.20
2022-10-05T09:09:14.239Z,9.02
2022-10-05T09:11:53.030Z,9.23
2022-10-05T09:14:39.363Z,8.95
2022-10-05T09:18:04.556Z,8.50
2022-10-05T09:20:53.179Z,8.43
2022-10-05T09:23:37.277Z,8.23
2022-10-05T09:26:40.885Z,8.45
2022-10-05T09:29:38.420Z,8.45
2022-10-05T09:32:36.068Z,8.25
2022-10-05T09:35:27.558Z,8.77
2022-10-05T09:38:09.127Z,7.95
2022-10-05T09:40:45.073Z,8.45
2022-10-05T09:44:08.819Z,9.07
2022-10-05T09:47:04.188Z,8.90
2022-10-05T09:49:47.785Z,9.40
2022-10-05T09:52:42.029Z,9.13
2022-10-05T09:56:00.284Z,8.38
2022-10-05T09:58:54.543Z,9.30
2022-10-05T10:01:48.826Z,9.20
2022-10-05T10:04:24.833Z,9.48
2022-10-05T10:07:21.109Z,9.60
2022-10-05T10:10:32.429Z,9.07
2022-10-05T10:13:33.018Z,9.10
2022-10-05T10:16:57.032Z,9.45
2022-10-05T10:19:29.315Z,9.15
2022-10-05T10:22:05.167Z,9.13
2022-10-05T10:25:00.828Z,9.10
2022-10-05T10:27:54.321Z,9.23
2022-10-05T10:30:36.607Z,9.25
2022-10-05T10:35:44.831Z,9.45
2022-10-05T10:38:33.261Z,9.52
2022-10-05T10:41:25.997Z,8.88
2022-10-05T10:44:34.270Z,9.00
2022-10-05T10:47:19.519Z,9.25
2022-10-05T10:50:07.548Z,9.50
2022-10-05T10:53:02.860Z,9.90
2022-10-05T10:55:42.375Z,10.05
2022-10-05T11:01:07.820Z,9.38
2022-10-05T11:03:53.243Z,10.50
2022-10-05T11:06:43.959Z,10.68
2022-10-05T11:09:16.328Z,10.48
2022-10-05T11:12:01.372Z,11.85
2022-10-05T11:15:05.808Z,10.70
2022-10-05T11:18:01.698Z,14.63
2022-10-05T11:20:56.616Z,9.90
2022-10-05T11:23:23.117Z,9.40
2022-10-05T11:26:32.444Z,9.57
2022-10-05T11:29:20.484Z,9.77
2022-10-05T11:32:39.343Z,10.13
2022-10-05T11:35:27.587Z,8.98
2022-10-05T11:38:25.669Z,8.60
2022-10-05T11:41:02.250Z,8.32
2022-10-05T11:43:48.372Z,8.68
2022-10-05T11:46:35.903Z,9.43
2022-10-05T11:49:41.310Z,9.98
2022-10-05T11:52:26.840Z,8.85
2022-10-05T11:55:10.991Z,6.90
2022-10-05T11:57:48.077Z,7.30
2022-10-05T12:00:21.065Z,7.00
2022-10-05T12:03:19.758Z,5.82
2022-10-05T12:05:58.479Z,6.13
2022-10-05T12:08:51.878Z,5.93
2022-10-05T12:11:58.009Z,6.07
2022-10-05T12:14:33.487Z,5.22
2022-10-05T12:17:18.739Z,5.70
2022-10-05T12:19:55.602Z,5.40
2022-10-05T12:22:31.680Z,5.13
2022-10-05T12:25:02.848Z,5.00
2022-10-05T12:27:38.774Z,5.10
2022-10-05T12:30:17.814Z,5.60
2022-10-05T12:32:56.953Z,5.43
2022-10-05T12:35:49.297Z,4.45
2022-10-05T12:38:34.605Z,4.75
2022-10-05T12:41:17.867Z,4.82
2022-10-05T12:43:55.083Z,5.03
2022-10-05T12:46:39.449Z,4.53
2022-10-05T12:49:23.854Z,4.68
2022-10-05T12:52:01.055Z,3.95
2022-10-05T12:54:56.140Z,3.60
2022-10-05T12:57:56.371Z,3.30
2022-10-05T13:00:23.491Z,3.20
2022-10-05T13:03:03.944Z,3.50
2022-10-05T13:05:45.747Z,3.25
2022-10-05T13:08:21.237Z,2.95
2022-10-05T13:11:16.910Z,3.10
2022-10-05T13:14:07.451Z,2.90
2022-10-05T13:16:34.029Z,3.00
2022-10-05T13:19:19.540Z,3.20
2022-10-05T13:21:46.135Z,3.10
2022-10-05T13:24:23.448Z,2.75
2022-10-05T13:26:56.470Z,2.78
2022-10-05T13:29:31.240Z,3.30
2022-10-05T13:32:03.284Z,5.30
2022-10-05T13:34:45.103Z,2.75
2022-10-05T13:37:17.386Z,3.65
2022-10-05T13:40:13.470Z,2.60
2022-10-05T13:42:57.976Z,2.70
2022-10-05T13:45:29.869Z,2.72
2022-10-05T13:48:05.639Z,3.15
2022-10-05T13:50:39.346Z,3.42
2022-10-05T13:53:35.443Z,3.45
2022-10-05T13:56:26.091Z,3.38
2022-10-05T13:59:33.037Z,3.42
2022-10-05T14:02:08.817Z,3.20
2022-10-05T14:04:48.577Z,3.60
2022-10-05T14:07:30.088Z,3.00
2022-10-05T14:09:57.498Z,3.05
2022-10-05T14:12:25.770Z,3.08
2022-10-05T14:14:57.356Z,3.03
2022-10-05T14:17:33.374Z,2.70
2022-10-05T14:20:03.031Z,3.35
2022-10-05T14:22:29.648Z,3.35
2022-10-05T14:25:13.897Z,3.08
2022-10-05T14:27:59.301Z,3.00
2022-10-05T14:30:28.604Z,3.08
2022-10-05T14:33:08.324Z,3.50
2022-10-05T14:35:51.400Z,3.17
2022-10-05T14:38:26.381Z,3.15
2022-10-05T14:41:25.412Z,2.85
2022-10-05T14:44:15.368Z,2.95
2022-10-05T14:46:58.830Z,3.08
2022-10-05T14:49:28.027Z,2.80
2022-10-05T14:51:55.740Z,3.25
2022-10-05T14:54:27.971Z,3.20
2022-10-05T14:57:06.741Z,3.10
2022-10-05T15:00:05.753Z,3.10
2022-10-05T15:02:51.429Z,2.70
2022-10-05T15:05:20.983Z,3.60
2022-10-05T15:07:49.825Z,3.60
2022-10-05T15:10:32.550Z,4.38
2022-10-05T15:13:11.478Z,3.38
2022-10-05T15:15:49.819Z,3.47
2022-10-05T15:18:19.668Z,3.00
2022-10-05T15:21:21.601Z,4.10
2022-10-05T15:24:08.534Z,3.28
2022-10-05T15:26:55.665Z,3.15
2022-10-05T15:29:38.144Z,3.65
2022-10-05T15:32:14.728Z,3.78
2022-10-05T15:34:52.882Z,3.53
2022-10-05T15:37:31.980Z,2.85
2022-10-05T15:40:04.642Z,3.40
2022-10-05T15:42:39.550Z,2.97
2022-10-05T15:45:24.021Z,2.83
2022-10-05T15:48:02.091Z,2.80
2022-10-05T15:50:36.476Z,3.50
2022-10-05T15:53:15.252Z,3.22
2022-10-05T15:55:50.184Z,3.95
2022-10-05T15:58:31.372Z,3.15
2022-10-05T16:01:07.982Z,3.10
2022-10-05T16:04:15.893Z,3.33
2022-10-05T16:07:11.747Z,4.50
2022-10-05T16:10:01.419Z,3.78
2022-10-05T16:12:34.060Z,2.95
2022-10-05T16:15:17.712Z,3.28
2022-10-05T16:18:06.181Z,2.92
2022-10-05T16:20:57.058Z,3.17
2022-10-05T16:24:23.042Z,2.88
2022-10-05T16:27:00.628Z,3.13
2022-10-05T16:29:38.294Z,3.10
2022-10-05T16:32:16.590Z,2.88
2022-10-05T16:35:20.963Z,2.65
2022-10-05T16:37:53.556Z,2.90
2022-10-05T16:40:37.222Z,3.08
2022-10-05T16:43:28.570Z,3.03
2022-10-05T16:46:13.175Z,3.20
2022-10-05T16:49:17.459Z,3.22
2022-10-05T16:52:06.565Z,3.20
2022-10-05T16:54:46.873Z,3.00
2022-10-05T16:57:22.214Z,3.50
2022-10-05T17:00:10.852Z,3.33
2022-10-05T17:02:43.371Z,3.17
2022-10-05T17:05:28.370Z,3.25
2022-10-05T17:08:08.588Z,3.70
2022-10-05T17:10:48.566Z,3.38
2022-10-05T17:13:39.476Z,3.33
2022-10-05T17:16:35.410Z,3.47
2022-10-05T17:19:23.343Z,3.67
2022-10-05T17:22:01.678Z,3.30
2022-10-05T17:24:46.875Z,3.47
2022-10-05T17:27:35.429Z,2.85
2022-10-05T17:30:36.052Z,3.35
2022-10-05T17:33:19.678Z,3.45
2022-10-05T17:36:06.232Z,3.22
2022-10-05T17:38:35.530Z,3.38
2022-10-05T17:41:14.494Z,3.55
2022-10-05T17:43:41.644Z,3.70
2022-10-05T17:46:12.304Z,3.65
2022-10-05T17:48:54.334Z,3.80
2022-10-05T17:51:48.578Z,3.47
2022-10-05T17:54:41.114Z,3.67
2022-10-05T17:57:07.584Z,3.50
2022-10-05T17:59:46.143Z,3.67
2022-10-05T18:02:40.839Z,3.40
2022-10-05T18:05:14.568Z,3.35
2022-10-05T18:07:48.698Z,3.85
2022-10-05T18:10:29.656Z,3.90
2022-10-05T18:12:59.193Z,4.35
2022-10-05T18:15:25.672Z,3.55
2022-10-05T18:18:00.943Z,4.13
2022-10-05T18:20:32.039Z,3.83
2022-10-05T18:23:09.376Z,4.07
2022-10-05T18:26:07.369Z,6.25
2022-10-05T18:28:46.283Z,7.90
2022-10-05T18:31:39.115Z,7.57
2022-10-05T18:34:09.010Z,5.32
2022-10-05T18:36:59.843Z,4.57
2022-10-05T18:39:38.455Z,4.15
2022-10-05T18:42:27.401Z,3.88
2022-10-05T18:45:21.837Z,4.35
2022-10-05T18:47:54.270Z,3.85
2022-10-05T18:50:38.302Z,3.63
2022-10-05T18:53:13.763Z,3.78
2022-10-05T18:55:55.582Z,3.53
2022-10-05T18:58:28.602Z,3.60
2022-10-05T19:01:03.517Z,3.53
2022-10-05T19:04:12.599Z,3.20
2022-10-05T19:07:18.425Z,3.63
2022-10-05T19:10:00.156Z,3.65
2022-10-05T19:12:41.422Z,3.50
2022-10-05T19:15:36.205Z,3.60
2022-10-05T19:18:18.610Z,3.10
2022-10-05T19:20:52.860Z,3.33
2022-10-05T19:23:48.710Z,3.80
2022-10-05T19:26:30.396Z,3.08
2022-10-05T19:29:15.795Z,3.30
2022-10-05T19:31:55.088Z,2.78
2022-10-05T19:34:45.757Z,3.60
2022-10-05T19:37:31.495Z,3.92
2022-10-05T19:40:24.378Z,3.50
2022-10-05T19:43:12.219Z,4.10
2022-10-05T19:46:19.028Z,3.85
2022-10-05T19:48:48.850Z,3.75
2022-10-05T19:51:29.341Z,3.60
2022-10-05T19:54:25.813Z,3.53
2022-10-05T19:56:54.346Z,3.30
2022-10-05T19:59:25.308Z,3.30
2022-10-05T20:04:40.824Z,3.00
2022-10-05T20:07:14.022Z,2.97
2022-10-05T20:09:58.252Z,3.17
2022-10-05T20:12:51.344Z,2.90
2022-10-05T20:15:41.756Z,2.88
2022-10-05T20:19:00.910Z,2.92
2022-10-05T20:21:49.901Z,3.05
2022-10-05T20:24:25.677Z,2.55
2022-10-05T20:27:16.065Z,2.60
2022-10-05T20:29:44.702Z,2.72
2022-10-05T20:32:13.721Z,2.97
2022-10-05T20:34:42.565Z,3.40
2022-10-05T20:37:11.515Z,3.08
2022-10-05T20:39:38.811Z,3.20
2022-10-05T20:42:07.384Z,3.28
2022-10-05T20:44:34.542Z,3.38
2022-10-05T20:47:01.505Z,3.17
2022-10-05T20:49:32.189Z,3.38
2022-10-05T20:51:59.283Z,3.58
2022-10-05T20:54:28.066Z,3.65
2022-10-05T20:56:55.710Z,3.60
2022-10-05T20:59:23.798Z,3.80
2022-10-05T21:01:50.708Z,3.40
2022-10-05T21:04:22.945Z,3.40
2022-10-05T21:06:49.656Z,4.55
2022-10-05T21:09:19.751Z,5.60
2022-10-05T21:11:48.133Z,7.57
2022-10-05T21:14:14.867Z,4.90
2022-10-05T21:16:41.842Z,4.72
2022-10-05T21:19:09.837Z,5.53
2022-10-05T21:21:36.967Z,6.60
2022-10-05T21:24:03.975Z,7.28
2022-10-05T21:26:31.107Z,4.32
2022-10-05T21:28:58.426Z,4.95
2022-10-05T21:31:26.049Z,5.05
2022-10-05T21:33:53.147Z,4.28
2022-10-05T21:36:23.819Z,3.88
2022-10-05T21:38:52.690Z,4.30
2022-10-05T21:41:20.263Z,4.28
2022-10-05T21:43:46.876Z,3.88
2022-10-05T21:46:20.192Z,3.88
2022-10-05T21:48:47.919Z,3.63
2022-10-05T21:51:16.919Z,3.15
2022-10-05T21:53:59.352Z,3.20
2022-10-05T21:56:31.277Z,3.03
2022-10-05T21:58:59.331Z,3.50
2022-10-05T22:01:25.990Z,3.83
2022-10-05T22:03:52.648Z,3.42
2022-10-05T22:06:19.323Z,3.70
2022-10-05T22:08:46.004Z,3.28
2022-10-05T22:11:15.596Z,3.67
2022-10-05T22:13:48.065Z,3.20
2022-10-05T22:16:15.746Z,3.97
2022-10-05T22:18:43.119Z,3.42
2022-10-05T22:21:12.098Z,3.50
2022-10-05T22:23:40.745Z,3.40
2022-10-05T22:26:09.603Z,3.40
2022-10-05T22:28:37.488Z,3.35
2022-10-05T22:31:06.490Z,3.60
2022-10-05T22:33:33.149Z,4.20
2022-10-05T22:36:00.719Z,4.00
2022-10-05T22:38:28.021Z,3.72
2022-10-05T22:40:54.683Z,3.88
2022-10-05T22:43:21.406Z,4.35
2022-10-05T22:45:47.983Z,3.75
2022-10-05T22:48:15.730Z,3.95
2022-10-05T22:50:46.597Z,3.60
2022-10-05T22:53:14.062Z,3.88
2022-10-05T22:55:40.944Z,4.28
2022-10-05T22:58:07.496Z,3.65
2022-10-05T23:00:56.437Z,3.95
2022-10-05T23:03:20.552Z,3.83
2022-10-05T23:05:47.145Z,4.25
2022-10-05T23:08:13.641Z,4.30
2022-10-05T23:10:40.250Z,4.07
2022-10-05T23:13:08.708Z,3.80
2022-10-05T23:15:35.858Z,3.80
2022-10-05T23:18:02.446Z,4.22
2022-10-05T23:20:29.102Z,4.15
2022-10-05T23:22:55.626Z,4.20
2022-10-05T23:25:22.322Z,3.80
2022-10-05T23:27:49.190Z,3.75
2022-10-05T23:30:15.787Z,3.50
2022-10-05T23:32:44.194Z,4.60
2022-10-05T23:35:12.573Z,4.25
2022-10-05T23:37:41.143Z,3.55
2022-10-05T23:40:10.509Z,3.83
2022-10-05T23:42:37.099Z,3.80
2022-10-05T23:45:03.913Z,3.58
2022-10-05T23:47:30.752Z,3.75
2022-10-05T23:49:57.267Z,4.15
2022-10-05T23:52:25.904Z,4.07
2022-10-05T23:54:52.476Z,4.10
2022-10-05T23:57:19.851Z,3.63
2022-10-05T23:59:46.555Z,3.42
